Time;durP1;ratioP1;P1;durP2;ratioP2;P2;SDS_P1;SDS_P2;PMS_P1;PMS_P2;Temp;Humidity;BMP_temperature;BMP_pressure;BME280_temperature;BME280_humidity;BME280_pressure;Samples;Min_cycle;Max_cycle;Signal;HPM_P1;HPM_P2
2022/05/14 00:01:06;;;;;;;2.13;0.90;;;12.50;99.90;;;;;;5100583;28;20066;-74
2022/05/14 00:03:34;;;;;;;3.67;1.33;;;12.50;99.90;;;;;;5103265;28;20035;-73
2022/05/14 00:06:02;;;;;;;3.47;1.17;;;12.40;99.90;;;;;;5106278;28;20023;-73
2022/05/14 00:08:29;;;;;;;3.03;1.00;;;12.40;99.90;;;;;;5099959;28;20032;-73
2022/05/14 00:13:39;;;;;;;2.30;1.02;;;12.20;99.90;;;;;;5102812;28;20529;-73
2022/05/14 00:16:06;;;;;;;2.25;0.95;;;12.20;99.90;;;;;;5105061;28;20031;-73
2022/05/14 00:18:33;;;;;;;2.30;1.30;;;12.10;99.90;;;;;;5106928;28;20102;-72
2022/05/14 00:20:59;;;;;;;2.78;1.10;;;12.10;99.90;;;;;;5108821;28;20039;-73
2022/05/14 00:23:25;;;;;;;3.80;1.58;;;12.00;99.90;;;;;;5104702;28;20490;-73
2022/05/14 00:25:51;;;;;;;2.72;1.55;;;12.00;99.90;;;;;;5104050;28;20026;-73
2022/05/14 00:28:17;;;;;;;3.03;1.48;;;12.00;99.90;;;;;;5106940;28;20099;-73
2022/05/14 00:30:43;;;;;;;4.45;1.52;;;12.00;99.90;;;;;;5101179;28;20023;-74
2022/05/14 00:33:09;;;;;;;2.92;1.30;;;11.90;99.90;;;;;;5105900;28;20069;-72
2022/05/14 00:35:35;;;;;;;2.58;1.40;;;11.90;99.90;;;;;;5103180;28;20032;-73
2022/05/14 00:38:02;;;;;;;3.85;1.38;;;11.90;99.90;;;;;;5105404;28;20028;-73
2022/05/14 00:40:35;;;;;;;2.15;1.00;;;11.90;99.90;;;;;;5100419;28;20048;-73
2022/05/14 00:43:00;;;;;;;3.92;1.30;;;11.80;99.90;;;;;;5109116;28;20422;-73
2022/05/14 00:45:28;;;;;;;2.53;1.17;;;11.80;99.90;;;;;;5107431;28;20023;-72
2022/05/14 00:47:58;;;;;;;3.08;1.20;;;11.70;99.90;;;;;;5103894;28;20624;-72
2022/05/14 00:50:39;;;;;;;2.35;1.25;;;11.70;99.90;;;;;;5109083;28;20044;-73
2022/05/14 00:53:17;;;;;;;3.78;1.00;;;11.70;99.90;;;;;;5112405;28;20480;-73
2022/05/14 00:55:45;;;;;;;4.90;1.20;;;11.60;99.90;;;;;;5113149;28;20533;-72
2022/05/14 00:58:20;;;;;;;3.90;1.25;;;11.50;99.90;;;;;;5108285;28;20099;-73
2022/05/14 01:00:45;;;;;;;2.30;0.90;;;11.50;99.90;;;;;;5097126;28;20032;-72
2022/05/14 01:03:11;;;;;;;2.67;1.15;;;11.40;99.90;;;;;;5113945;28;20383;-73
2022/05/14 01:05:37;;;;;;;4.32;1.27;;;11.40;99.90;;;;;;5112979;28;20023;-72
2022/05/14 01:08:03;;;;;;;3.05;1.00;;;11.40;99.90;;;;;;5112224;28;20362;-73
2022/05/14 01:10:36;;;;;;;1.67;1.02;;;11.40;99.90;;;;;;5112457;28;20039;-72
2022/05/14 01:13:03;;;;;;;1.95;0.75;;;11.30;99.90;;;;;;5105289;28;20020;-72
2022/05/14 01:15:49;;;;;;;2.35;1.02;;;11.30;99.90;;;;;;5112763;28;20086;-72
2022/05/14 01:18:22;;;;;;;2.58;1.33;;;11.20;99.90;;;;;;5105861;28;20024;-72
2022/05/14 01:21:17;;;;;;;4.35;1.25;;;11.20;99.90;;;;;;5111367;28;20039;-73
2022/05/14 01:26:36;;;;;;;3.63;0.80;;;11.10;99.90;;;;;;5112137;28;20202;-72
2022/05/14 01:29:03;;;;;;;5.18;0.90;;;11.10;99.90;;;;;;5113058;28;20383;-73
2022/05/14 01:31:29;;;;;;;3.85;1.20;;;11.00;99.90;;;;;;5112526;28;20039;-73
2022/05/14 01:33:58;;;;;;;6.05;2.72;;;11.00;99.90;;;;;;5112508;28;20032;-73
2022/05/14 01:36:24;;;;;;;2.17;1.60;;;11.00;99.90;;;;;;5112397;28;20042;-72
2022/05/14 01:38:50;;;;;;;3.10;1.50;;;10.90;99.90;;;;;;5112622;28;20023;-73
2022/05/14 01:41:15;;;;;;;1.30;1.08;;;10.90;99.90;;;;;;5112655;28;20068;-73
2022/05/14 01:43:41;;;;;;;1.80;1.10;;;10.80;99.90;;;;;;5111373;28;20103;-73
2022/05/14 01:46:07;;;;;;;2.70;1.38;;;10.80;99.90;;;;;;5112525;28;20027;-73
2022/05/14 01:48:33;;;;;;;4.38;1.40;;;10.80;99.90;;;;;;5112058;28;20073;-74
2022/05/14 01:50:59;;;;;;;3.60;1.65;;;10.80;99.90;;;;;;5112506;28;20027;-73
2022/05/14 01:53:25;;;;;;;4.63;1.40;;;10.70;99.90;;;;;;5111856;28;20453;-72
2022/05/14 01:55:50;;;;;;;2.92;1.52;;;10.70;99.90;;;;;;5111833;28;20031;-72
2022/05/14 02:01:00;;;;;;;1.60;1.35;;;10.60;99.90;;;;;;5101104;28;20388;-73
2022/05/14 02:03:26;;;;;;;3.50;1.40;;;10.60;99.90;;;;;;5111784;28;20023;-73
2022/05/14 02:05:52;;;;;;;1.42;1.00;;;10.60;99.90;;;;;;5108251;28;20028;-73
2022/05/14 02:08:17;;;;;;;1.88;1.30;;;10.50;99.90;;;;;;5110525;28;20024;-73
2022/05/14 02:10:46;;;;;;;3.20;1.55;;;;;;;;;;5111387;28;20042;-72
2022/05/14 02:13:15;;;;;;;2.47;1.50;;;;;;;;;;5111705;28;20027;-73
2022/05/14 02:15:43;;;;;;;3.50;1.55;;;;;;;;;;5111071;28;20456;-72
2022/05/14 02:18:09;;;;;;;2.58;1.52;;;10.50;99.90;;;;;;5112528;28;20065;-73
2022/05/14 02:20:35;;;;;;;2.28;1.20;;;10.50;99.90;;;;;;5111078;28;20418;-72
2022/05/14 02:23:00;;;;;;;2.03;1.20;;;10.50;99.90;;;;;;5111802;28;20024;-73
2022/05/14 02:25:28;;;;;;;3.83;1.52;;;;;;;;;;5109536;28;20455;-73
2022/05/14 02:27:54;;;;;;;2.72;1.30;;;;;;;;;;5109273;28;20111;-73
2022/05/14 02:30:20;;;;;;;3.35;1.38;;;;;;;;;;5111224;28;20161;-72
2022/05/14 02:32:46;;;;;;;1.77;1.00;;;10.40;99.90;;;;;;5111876;28;20020;-72
2022/05/14 02:35:12;;;;;;;1.60;1.00;;;10.40;99.90;;;;;;5112050;28;20028;-73
2022/05/14 02:37:37;;;;;;;1.67;1.08;;;10.30;99.90;;;;;;5110836;28;20088;-74
2022/05/14 02:40:04;;;;;;;3.17;1.20;;;10.30;99.90;;;;;;5109730;28;20075;-74
2022/05/14 02:42:30;;;;;;;4.82;1.50;;;10.30;99.90;;;;;;5110972;28;20035;-73
2022/05/14 02:44:55;;;;;;;4.78;1.20;;;10.30;99.90;;;;;;5112140;28;20089;-73
2022/05/14 02:47:26;;;;;;;5.22;0.98;;;;;;;;;;5111642;28;20023;-71
2022/05/14 02:49:56;;;;;;;5.85;1.40;;;;;;;;;;5111659;28;20023;-73
2022/05/14 02:52:23;;;;;;;2.25;1.25;;;;;;;;;;5089072;28;20422;-72
2022/05/14 02:54:53;;;;;;;4.53;1.23;;;;;;;;;;5111648;28;20437;-73
2022/05/14 02:57:21;;;;;;;3.72;1.08;;;;;;;;;;5112038;28;20028;-73
2022/05/14 02:59:47;;;;;;;4.60;1.00;;;;;;;;;;5110760;28;20064;-74
2022/05/14 03:02:13;;;;;;;1.00;0.80;;;;;;;;;;5111435;28;20062;-72
2022/05/14 03:04:40;;;;;;;3.95;1.10;;;;;;;;;;5110224;28;20155;-74
2022/05/14 03:07:07;;;;;;;1.67;1.20;;;;;;;;;;5112255;28;20019;-74
2022/05/14 03:09:34;;;;;;;4.38;1.38;;;;;;;;;;5110561;28;20067;-74
2022/05/14 03:12:01;;;;;;;5.07;1.35;;;;;;;;;;5109117;28;20027;-75
2022/05/14 03:14:27;;;;;;;1.10;0.73;;;;;;;;;;5110712;28;20106;-73
2022/05/14 03:16:53;;;;;;;3.45;0.90;;;;;;;;;;5111594;28;20027;-74
2022/05/14 03:19:19;;;;;;;1.38;0.85;;;;;;;;;;5111631;28;20376;-72
2022/05/14 03:21:45;;;;;;;2.05;1.23;;;;;;;;;;5110866;28;20062;-72
2022/05/14 03:24:11;;;;;;;2.38;1.02;;;;;;;;;;5115274;28;20464;-72
2022/05/14 03:26:38;;;;;;;5.65;1.10;;;;;;;;;;5114407;28;20047;-72
2022/05/14 03:29:04;;;;;;;2.75;1.02;;;;;;;;;;5114872;28;20024;-71
2022/05/14 03:31:31;;;;;;;5.30;1.40;;;;;;;;;;5114734;28;20447;-72
2022/05/14 03:33:57;;;;;;;3.42;1.70;;;;;;;;;;5107442;28;20023;-73
2022/05/14 03:36:24;;;;;;;1.85;0.85;;;;;;;;;;5115337;28;20016;-71
2022/05/14 03:38:50;;;;;;;3.28;1.10;;;;;;;;;;5114307;28;20072;-72
2022/05/14 03:41:20;;;;;;;4.05;1.48;;;;;;;;;;5114268;28;20123;-72
2022/05/14 03:43:46;;;;;;;2.78;1.30;;;;;;;;;;5114198;28;20031;-73
2022/05/14 03:46:12;;;;;;;2.88;1.13;;;9.90;99.90;;;;;;5096978;28;20027;-73
2022/05/14 03:48:38;;;;;;;2.72;1.13;;;9.80;99.90;;;;;;5114574;28;20038;-72
2022/05/14 03:51:04;;;;;;;3.13;1.60;;;9.80;99.90;;;;;;5115287;28;20332;-72
2022/05/14 03:53:30;;;;;;;2.17;1.15;;;9.70;99.90;;;;;;5111814;28;20031;-71
2022/05/14 03:55:56;;;;;;;2.30;1.10;;;9.70;99.90;;;;;;5114669;28;20027;-72
2022/05/14 03:58:22;;;;;;;3.00;1.20;;;9.60;99.90;;;;;;5097160;28;20378;-72
2022/05/14 04:00:48;;;;;;;3.15;1.20;;;9.60;99.90;;;;;;5113990;28;20043;-71
2022/05/14 04:03:14;;;;;;;3.55;1.90;;;9.60;99.90;;;;;;5112629;28;20027;-72
2022/05/14 04:05:40;;;;;;;3.33;1.20;;;9.60;99.90;;;;;;5110167;28;20035;-73
2022/05/14 04:08:06;;;;;;;2.35;1.27;;;9.60;99.90;;;;;;5115104;28;20035;-72
2022/05/14 04:10:32;;;;;;;3.20;1.30;;;9.60;99.90;;;;;;5114465;28;20032;-71
2022/05/14 04:12:59;;;;;;;2.90;1.23;;;9.70;99.90;;;;;;5114018;28;20034;-72
2022/05/14 04:15:25;;;;;;;2.67;1.50;;;9.70;99.90;;;;;;5114629;28;20475;-72
2022/05/14 04:17:52;;;;;;;3.17;1.33;;;9.70;99.90;;;;;;5114219;28;20024;-71
2022/05/14 04:20:18;;;;;;;2.92;1.38;;;9.80;99.90;;;;;;5114353;28;20035;-72
2022/05/14 04:22:43;;;;;;;1.75;1.00;;;9.80;99.90;;;;;;5111629;28;20034;-71
2022/05/14 04:25:11;;;;;;;1.10;1.00;;;9.90;99.90;;;;;;5114011;28;20023;-72
2022/05/14 04:27:37;;;;;;;6.28;1.50;;;9.90;99.90;;;;;;5113533;28;20388;-72
2022/05/14 04:30:03;;;;;;;2.55;1.60;;;9.90;99.90;;;;;;5113931;28;20023;-71
2022/05/14 04:32:29;;;;;;;2.80;1.20;;;10.00;99.90;;;;;;5113410;28;20035;-69
2022/05/14 04:34:56;;;;;;;4.22;1.67;;;10.00;99.90;;;;;;5113938;28;20047;-72
2022/05/14 04:37:22;;;;;;;1.73;1.20;;;10.10;99.90;;;;;;5103230;28;20038;-72
2022/05/14 04:39:49;;;;;;;2.28;1.45;;;10.20;99.90;;;;;;5109848;28;20118;-70
2022/05/14 04:42:15;;;;;;;4.00;1.75;;;10.30;99.90;;;;;;5108508;28;20032;-72
2022/05/14 04:44:41;;;;;;;4.07;1.40;;;10.30;99.90;;;;;;5093401;28;20028;-73
2022/05/14 04:47:08;;;;;;;3.45;1.38;;;10.40;99.90;;;;;;5094432;28;20104;-71
2022/05/14 04:49:41;;;;;;;3.45;1.38;;;10.50;99.90;;;;;;5093408;28;20485;-71
2022/05/14 04:52:07;;;;;;;2.28;1.40;;;10.60;99.90;;;;;;5104393;28;20036;-72
2022/05/14 04:54:33;;;;;;;2.95;1.20;;;10.70;99.90;;;;;;5095235;28;20069;-71
2022/05/14 04:56:59;;;;;;;3.30;1.80;;;10.80;99.90;;;;;;5093647;28;20024;-72
2022/05/14 04:59:24;;;;;;;3.05;1.70;;;10.90;99.90;;;;;;5111182;28;20498;-71
2022/05/14 05:04:38;;;;;;;2.28;1.40;;;11.10;99.90;;;;;;5112699;28;20030;-71
2022/05/14 05:07:04;;;;;;;2.08;1.23;;;11.20;99.90;;;;;;5113549;28;20027;-72
2022/05/14 05:09:29;;;;;;;2.20;1.20;;;11.30;99.90;;;;;;5106415;28;20038;-71
2022/05/14 05:11:55;;;;;;;3.47;1.40;;;11.40;99.90;;;;;;5096669;28;20036;-72
2022/05/14 05:14:20;;;;;;;3.17;1.27;;;11.50;99.90;;;;;;5094023;28;20047;-72
2022/05/14 05:16:46;;;;;;;3.28;1.60;;;11.60;99.90;;;;;;5102309;28;20039;-71
2022/05/14 05:19:12;;;;;;;7.65;1.80;;;11.70;99.90;;;;;;5107607;28;20376;-73
2022/05/14 05:21:39;;;;;;;2.42;1.38;;;11.80;99.90;;;;;;5095570;28;20073;-72
2022/05/14 05:24:05;;;;;;;4.40;1.80;;;11.90;99.90;;;;;;5100289;28;20032;-72
2022/05/14 05:26:32;;;;;;;6.22;2.85;;;12.00;99.90;;;;;;5093157;28;20027;-71
2022/05/14 05:28:58;;;;;;;4.72;2.30;;;12.10;99.90;;;;;;5096862;28;20029;-71
2022/05/14 05:31:24;;;;;;;3.28;1.92;;;12.20;99.90;;;;;;5106571;28;20103;-71
2022/05/14 05:33:50;;;;;;;5.13;2.63;;;12.30;99.90;;;;;;5110264;28;20039;-71
2022/05/14 05:36:15;;;;;;;7.90;3.17;;;12.40;99.90;;;;;;5099709;28;20020;-71
2022/05/14 05:38:41;;;;;;;7.53;2.90;;;12.50;99.90;;;;;;5098794;28;20027;-72
2022/05/14 05:41:06;;;;;;;7.28;2.88;;;12.70;99.90;;;;;;5093446;28;20056;-70
2022/05/14 05:43:32;;;;;;;10.00;3.15;;;12.80;99.90;;;;;;5109561;28;20034;-71
2022/05/14 05:45:59;;;;;;;7.88;3.38;;;12.80;99.90;;;;;;5104751;28;20027;-74
2022/05/14 05:48:24;;;;;;;8.60;2.88;;;13.00;99.90;;;;;;5093043;28;20024;-72
2022/05/14 05:50:50;;;;;;;4.30;3.00;;;13.10;99.90;;;;;;5108100;28;20036;-72
2022/05/14 05:53:17;;;;;;;8.35;2.80;;;13.20;99.90;;;;;;5105300;28;20107;-73
2022/05/14 05:58:27;;;;;;;4.70;2.90;;;13.30;99.90;;;;;;5093126;28;20491;-73
2022/05/14 06:00:53;;;;;;;5.85;2.83;;;13.40;99.90;;;;;;5092366;28;20028;-73
2022/05/14 06:03:19;;;;;;;7.72;3.33;;;13.50;99.90;;;;;;5092610;28;20039;-74
2022/05/14 06:05:45;;;;;;;4.22;2.70;;;13.60;99.90;;;;;;5100727;28;20112;-74
2022/05/14 06:08:14;;;;;;;4.28;2.15;;;13.80;99.90;;;;;;5109064;28;20032;-74
2022/05/14 06:10:41;;;;;;;9.35;2.90;;;13.90;99.90;;;;;;5075462;28;20066;-73
2022/05/14 06:13:09;;;;;;;6.03;2.80;;;14.00;99.90;;;;;;5104929;28;20032;-75
2022/05/14 06:15:35;;;;;;;6.18;3.15;;;14.20;99.90;;;;;;5100697;28;20032;-72
2022/05/14 06:18:02;;;;;;;6.13;3.03;;;14.30;99.90;;;;;;5107646;28;20032;-71
2022/05/14 06:20:28;;;;;;;8.85;3.40;;;14.40;99.90;;;;;;5098157;28;20103;-73
2022/05/14 06:22:54;;;;;;;7.53;3.60;;;14.50;99.90;;;;;;5101152;28;20019;-72
2022/05/14 06:25:20;;;;;;;7.35;3.60;;;14.70;99.90;;;;;;5105872;28;20389;-74
2022/05/14 06:27:45;;;;;;;6.35;3.22;;;14.80;99.90;;;;;;5087932;28;20027;-72
2022/05/14 06:30:11;;;;;;;11.60;3.55;;;14.90;99.90;;;;;;5095418;28;20055;-72
2022/05/14 06:32:37;;;;;;;8.10;3.55;;;15.00;99.90;;;;;;5091178;28;20047;-71
2022/05/14 06:35:05;;;;;;;8.38;3.67;;;15.00;99.90;;;;;;5108630;28;20028;-72
2022/05/14 06:37:30;;;;;;;8.77;3.78;;;15.10;99.90;;;;;;5074007;28;20434;-72
2022/05/14 06:39:56;;;;;;;9.05;3.47;;;15.20;99.90;;;;;;5097278;28;20113;-73
2022/05/14 06:42:22;;;;;;;6.28;3.03;;;15.20;99.90;;;;;;5094206;28;20040;-73
2022/05/14 06:44:48;;;;;;;6.55;2.83;;;15.30;99.90;;;;;;5111158;28;20055;-72
2022/05/14 06:47:13;;;;;;;5.13;2.40;;;15.40;99.90;;;;;;5111500;28;20111;-75
2022/05/14 06:49:39;;;;;;;6.50;3.10;;;15.50;99.90;;;;;;5110391;28;20056;-74
2022/05/14 06:52:07;;;;;;;7.00;2.40;;;15.70;99.90;;;;;;5111268;28;20051;-73
2022/05/14 06:54:36;;;;;;;11.95;2.65;;;15.80;99.90;;;;;;5102615;28;20385;-74
2022/05/14 06:57:03;;;;;;;7.30;2.85;;;15.90;99.90;;;;;;5093410;28;20024;-73
2022/05/14 06:59:31;;;;;;;6.88;2.88;;;16.10;99.90;;;;;;5096470;28;20039;-73
2022/05/14 07:01:57;;;;;;;8.85;3.83;;;16.30;99.90;;;;;;5113085;28;20038;-73
2022/05/14 07:07:07;;;;;;;6.68;2.90;;;16.70;99.90;;;;;;5097820;28;20155;-72
2022/05/14 07:09:33;;;;;;;5.80;2.92;;;16.90;99.90;;;;;;5102643;28;20031;-73
2022/05/14 07:12:03;;;;;;;8.93;3.15;;;16.90;99.90;;;;;;5100145;28;20102;-72
2022/05/14 07:14:31;;;;;;;9.63;3.03;;;17.00;99.90;;;;;;5110880;28;20024;-73
2022/05/14 07:16:57;;;;;;;5.97;2.95;;;17.00;99.90;;;;;;5106957;28;20116;-73
2022/05/14 07:19:23;;;;;;;7.97;2.70;;;17.00;99.90;;;;;;5099835;28;20419;-74
2022/05/14 07:21:50;;;;;;;8.63;2.63;;;17.10;99.90;;;;;;5114111;28;20043;-76
2022/05/14 07:24:19;;;;;;;9.63;2.85;;;17.10;99.90;;;;;;5113891;28;20032;-72
2022/05/14 07:26:45;;;;;;;5.00;2.60;;;17.20;99.90;;;;;;5108346;28;20077;-72
2022/05/14 07:29:15;;;;;;;7.57;3.13;;;17.30;99.90;;;;;;5104852;28;20441;-75
2022/05/14 07:31:41;;;;;;;8.63;2.75;;;17.60;99.90;;;;;;5108856;28;20059;-72
2022/05/14 07:34:07;;;;;;;6.25;2.58;;;17.70;99.90;;;;;;5113713;28;20042;-74
2022/05/14 07:36:50;;;;;;;5.03;2.63;;;17.70;99.90;;;;;;5115423;28;20035;-72
2022/05/14 07:39:18;;;;;;;4.22;2.17;;;17.80;99.90;;;;;;5113474;28;20055;-73
2022/05/14 07:41:48;;;;;;;8.88;2.58;;;18.00;99.90;;;;;;5100663;28;20496;-71
2022/05/14 07:44:15;;;;;;;11.40;2.93;;;18.10;99.90;;;;;;5104137;28;20023;-73
2022/05/14 07:46:41;;;;;;;5.60;2.70;;;18.20;99.90;;;;;;5113188;28;20032;-80
2022/05/14 07:49:10;;;;;;;4.10;2.25;;;18.30;99.90;;;;;;5107057;28;20069;-77
2022/05/14 07:51:37;;;;;;;4.20;2.43;;;18.40;99.90;;;;;;5105944;28;20081;-75
2022/05/14 07:54:04;;;;;;;5.93;2.50;;;18.40;99.90;;;;;;5099425;28;20270;-73
2022/05/14 07:56:29;;;;;;;5.70;2.10;;;18.50;99.80;;;;;;5096206;28;20052;-78
2022/05/14 07:58:55;;;;;;;7.00;2.13;;;18.60;99.00;;;;;;5094974;28;20719;-75
2022/05/14 08:01:21;;;;;;;5.72;2.30;;;18.70;98.50;;;;;;5103864;28;20063;-74
2022/05/14 08:03:49;;;;;;;6.43;2.35;;;18.80;98.10;;;;;;5097862;28;20050;-75
2022/05/14 08:06:17;;;;;;;7.18;2.47;;;18.80;98.10;;;;;;5109308;28;20085;-74
2022/05/14 08:08:43;;;;;;;3.65;1.90;;;18.80;97.80;;;;;;5097829;28;20032;-71
2022/05/14 08:11:09;;;;;;;4.72;1.80;;;19.10;97.20;;;;;;5095043;28;20036;-74
2022/05/14 08:13:36;;;;;;;6.32;2.10;;;19.10;96.60;;;;;;5110908;28;20032;-74
2022/05/14 08:16:02;;;;;;;5.38;1.95;;;19.20;95.80;;;;;;5104985;28;20026;-75
2022/05/14 08:18:29;;;;;;;6.03;2.00;;;19.20;95.60;;;;;;5101142;28;20471;-74
2022/05/14 08:20:55;;;;;;;6.50;1.90;;;19.40;94.60;;;;;;5115975;28;20088;-75
2022/05/14 08:26:06;;;;;;;4.22;1.60;;;19.60;93.50;;;;;;5111881;28;20050;-73
2022/05/14 08:28:32;;;;;;;7.45;1.60;;;19.80;92.30;;;;;;5112694;28;20485;-74
2022/05/14 08:31:00;;;;;;;5.93;1.90;;;19.90;91.70;;;;;;5110832;28;20100;-72
2022/05/14 08:33:27;;;;;;;6.75;1.70;;;19.90;91.60;;;;;;5105285;28;20495;-71
2022/05/14 08:35:52;;;;;;;6.15;2.35;;;20.00;91.60;;;;;;5107213;28;20366;-72
2022/05/14 08:38:18;;;;;;;3.75;1.85;;;20.10;91.10;;;;;;5107306;28;20031;-72
2022/05/14 08:40:59;;;;;;;3.80;1.63;;;20.20;90.50;;;;;;5111871;28;20412;-73
2022/05/14 08:43:39;;;;;;;4.22;1.45;;;20.30;90.20;;;;;;5109486;28;20464;-72
2022/05/14 08:46:25;;;;;;;5.00;1.80;;;20.50;87.40;;;;;;5109304;28;20035;-73
2022/05/14 08:48:56;;;;;;;3.88;1.73;;;20.60;85.90;;;;;;5109447;28;20020;-72
2022/05/14 08:51:27;;;;;;;1.92;1.20;;;20.70;84.90;;;;;;5110277;28;20039;-73
2022/05/14 08:53:53;;;;;;;6.47;1.60;;;20.70;83.70;;;;;;5108175;28;20084;-75
2022/05/14 08:56:28;;;;;;;4.07;1.40;;;20.80;82.00;;;;;;5112847;28;20111;-75
2022/05/14 08:59:03;;;;;;;6.00;1.63;;;20.80;81.50;;;;;;5115616;28;20024;-76
2022/05/14 09:01:32;;;;;;;7.53;1.63;;;20.80;81.40;;;;;;5101543;28;20032;-76
2022/05/14 09:03:58;;;;;;;4.60;1.35;;;20.80;79.50;;;;;;5104562;28;20499;-75
2022/05/14 09:06:23;;;;;;;4.00;1.50;;;20.80;79.10;;;;;;5112963;28;20028;-84
2022/05/14 09:08:50;;;;;;;4.13;1.58;;;20.90;79.00;;;;;;5116968;28;20039;-79
2022/05/14 09:11:29;;;;;;;3.13;1.40;;;20.90;78.90;;;;;;5119978;28;20067;-76
2022/05/14 09:14:00;;;;;;;5.57;1.83;;;20.90;78.90;;;;;;5103705;28;20481;-78
2022/05/14 09:16:30;;;;;;;4.60;1.60;;;21.00;79.40;;;;;;5094399;28;20030;-76
2022/05/14 09:18:56;;;;;;;4.00;1.85;;;21.10;76.60;;;;;;5112198;28;20023;-75
2022/05/14 09:21:27;;;;;;;4.32;1.25;;;21.20;77.30;;;;;;5106133;28;20426;-74
2022/05/14 09:23:58;;;;;;;3.97;1.65;;;21.10;78.20;;;;;;5104472;28;20072;-74
2022/05/14 09:26:31;;;;;;;5.85;1.60;;;21.20;78.10;;;;;;5111154;28;20028;-75
2022/05/14 09:29:11;;;;;;;7.25;1.95;;;21.40;77.70;;;;;;5109100;28;20368;-74
2022/05/14 09:31:49;;;;;;;2.70;1.20;;;21.60;75.70;;;;;;5112937;28;20471;-75
2022/05/14 09:34:16;;;;;;;4.03;1.30;;;21.70;76.70;;;;;;5111546;28;20345;-76
2022/05/14 09:36:45;;;;;;;5.80;1.80;;;21.90;76.30;;;;;;5100192;28;20400;-72
2022/05/14 09:39:15;;;;;;;3.70;1.70;;;22.10;75.00;;;;;;5102726;28;20054;-74
2022/05/14 09:41:51;;;;;;;6.63;2.03;;;22.30;73.80;;;;;;5103403;28;20106;-71
2022/05/14 09:44:28;;;;;;;3.17;1.27;;;22.40;72.00;;;;;;5096127;28;20024;-76
2022/05/14 09:47:08;;;;;;;6.15;1.20;;;22.40;72.30;;;;;;5104524;28;20084;-77
2022/05/14 09:49:39;;;;;;;4.35;2.08;;;22.40;71.50;;;;;;5112188;28;20034;-77
2022/05/14 09:52:07;;;;;;;2.08;1.30;;;22.20;70.50;;;;;;5111606;28;20028;-77
2022/05/14 09:54:36;;;;;;;5.80;1.60;;;22.20;71.10;;;;;;5109681;28;20019;-76
2022/05/14 09:57:10;;;;;;;4.50;1.85;;;22.20;72.10;;;;;;5111146;28;20020;-77
2022/05/14 10:00:08;;;;;;;7.60;1.70;;;22.20;71.60;;;;;;5110268;28;20020;-77
2022/05/14 10:02:48;;;;;;;7.03;1.77;;;22.30;71.50;;;;;;5102361;28;20036;-78
2022/05/14 10:05:17;;;;;;;5.18;1.50;;;22.50;70.60;;;;;;5111992;28;20046;-78
2022/05/14 10:07:49;;;;;;;5.80;2.10;;;22.40;72.70;;;;;;5107392;28;20067;-74
2022/05/14 10:10:42;;;;;;;4.57;1.55;;;22.50;72.30;;;;;;5107409;28;20024;-77
2022/05/14 10:13:47;;;;;;;2.13;1.45;;;22.50;69.60;;;;;;5105552;28;20057;-77
2022/05/14 10:16:30;;;;;;;5.00;2.17;;;22.50;71.50;;;;;;5065290;28;20059;-78
2022/05/14 10:19:33;;;;;;;4.70;1.50;;;22.40;69.50;;;;;;5102871;28;20020;-78
2022/05/14 10:22:01;;;;;;;7.05;1.90;;;22.30;69.50;;;;;;5053836;28;20043;-77
2022/05/14 10:28:18;;;;;;;5.82;1.52;;;22.50;69.30;;;;;;5108621;28;20039;-74
2022/05/14 10:31:17;;;;;;;4.35;2.03;;;22.80;69.70;;;;;;5108138;28;20027;-77
2022/05/14 10:33:43;;;;;;;4.00;1.65;;;23.10;68.50;;;;;;5103697;28;20042;-75
2022/05/14 10:36:23;;;;;;;3.83;1.45;;;23.10;69.30;;;;;;5103158;28;20024;-76
2022/05/14 10:38:50;;;;;;;;;;;23.30;67.00;;;;;;5110024;28;20081;-77
2022/05/14 10:41:43;;;;;;;5.20;1.30;;;23.30;67.40;;;;;;5112086;28;19946;-77
2022/05/14 10:44:17;;;;;;;4.63;1.35;;;23.30;66.90;;;;;;5105901;28;20062;-76
2022/05/14 10:46:46;;;;;;;3.72;1.40;;;23.40;68.20;;;;;;5113563;28;20036;-74
2022/05/14 10:49:17;;;;;;;2.88;1.50;;;23.50;66.40;;;;;;5115503;28;20054;-77
2022/05/14 10:51:46;;;;;;;2.92;1.35;;;23.40;64.90;;;;;;5113926;28;20096;-74
2022/05/14 10:54:18;;;;;;;5.60;1.13;;;23.40;66.50;;;;;;5109707;28;20115;-78
2022/05/14 10:57:13;;;;;;;5.88;1.40;;;23.50;65.60;;;;;;5115172;28;20032;-73
2022/05/14 10:59:42;;;;;;;3.80;1.10;;;23.60;65.80;;;;;;5108543;28;20036;-77
2022/05/14 11:02:12;;;;;;;6.50;1.70;;;23.80;66.00;;;;;;5111102;28;20038;-76
2022/05/14 11:04:42;;;;;;;6.15;1.52;;;23.50;64.80;;;;;;5109064;28;20073;-77
2022/05/14 11:07:39;;;;;;;4.22;1.50;;;23.60;66.00;;;;;;5111425;28;20024;-76
2022/05/14 11:10:33;;;;;;;3.15;1.08;;;23.80;64.30;;;;;;5110823;28;20192;-85
2022/05/14 11:13:19;;;;;;;4.47;1.40;;;23.90;64.50;;;;;;5099437;28;20059;-78
2022/05/14 11:15:45;;;;;;;4.68;1.55;;;24.10;64.70;;;;;;5101687;28;20015;-75
2022/05/14 11:18:14;;;;;;;2.92;1.17;;;23.90;63.80;;;;;;5111262;28;20024;-77
2022/05/14 11:20:53;;;;;;;10.25;1.60;;;24.00;63.50;;;;;;5109217;28;20525;-74
2022/05/14 11:23:19;;;;;;;6.78;1.80;;;23.70;62.30;;;;;;5107614;28;20066;-77
2022/05/14 11:25:45;;;;;;;2.60;1.00;;;23.60;62.20;;;;;;5103151;28;20056;-74
2022/05/14 11:28:16;;;;;;;5.22;1.45;;;23.70;64.40;;;;;;5107620;28;20098;-78
2022/05/14 11:30:43;;;;;;;4.60;1.45;;;23.90;64.20;;;;;;5110250;28;20505;-74
2022/05/14 11:33:33;;;;;;;3.50;1.50;;;24.30;62.40;;;;;;5110785;28;20031;-77
2022/05/14 11:36:18;;;;;;;7.00;1.90;;;24.70;62.50;;;;;;5099533;28;20039;-76
2022/05/14 11:39:08;;;;;;;5.28;1.60;;;25.00;62.40;;;;;;5104174;28;20026;-74
2022/05/14 11:41:37;;;;;;;3.55;1.30;;;25.10;61.50;;;;;;5103469;28;20142;-77
2022/05/14 11:44:06;;;;;;;5.07;1.25;;;25.20;61.30;;;;;;5111322;28;20765;-77
2022/05/14 11:46:42;;;;;;;3.97;1.23;;;25.20;61.30;;;;;;5099440;28;20032;-76
2022/05/14 11:49:21;;;;;;;4.13;1.50;;;25.20;61.40;;;;;;5117948;28;20285;-76
2022/05/14 11:52:00;;;;;;;3.22;1.55;;;25.00;59.70;;;;;;5114160;28;20418;-77
2022/05/14 11:54:30;;;;;;;5.23;1.23;;;25.00;58.80;;;;;;5114876;28;20551;-76
2022/05/14 11:57:01;;;;;;;5.72;1.42;;;25.00;59.50;;;;;;5113998;28;20020;-77
2022/05/14 12:00:01;;;;;;;3.45;1.23;;;25.10;59.20;;;;;;5113471;28;20361;-85
2022/05/14 12:02:42;;;;;;;5.60;1.42;;;25.40;58.60;;;;;;5108923;28;20063;-74
2022/05/14 12:05:14;;;;;;;3.03;1.13;;;25.30;59.20;;;;;;5112678;28;20073;-77
2022/05/14 12:08:01;;;;;;;9.13;1.55;;;25.30;57.90;;;;;;5105211;28;20052;-76
2022/05/14 12:10:36;;;;;;;5.18;1.23;;;25.30;57.90;;;;;;5106648;28;20031;-79
2022/05/14 12:13:32;;;;;;;5.82;1.33;;;25.30;57.20;;;;;;5106377;28;20030;-77
2022/05/14 12:15:59;;;;;;;5.43;1.33;;;25.50;57.30;;;;;;5106636;28;20019;-77
2022/05/14 12:18:26;;;;;;;4.43;1.45;;;25.80;59.10;;;;;;5112884;28;20032;-80
2022/05/14 12:20:57;;;;;;;5.35;1.45;;;25.90;57.00;;;;;;5111830;28;20043;-77
2022/05/14 12:23:46;;;;;;;2.55;1.10;;;26.10;56.10;;;;;;5113919;28;20038;-76
2022/05/14 12:26:30;;;;;;;2.65;1.30;;;26.40;56.40;;;;;;5113349;28;20023;-78
2022/05/14 12:28:59;;;;;;;4.28;1.40;;;26.20;54.40;;;;;;5112611;28;20030;-78
2022/05/14 12:34:14;;;;;;;6.57;1.13;;;26.60;55.60;;;;;;5106071;28;20092;-78
2022/05/14 12:36:49;;;;;;;2.80;1.50;;;26.60;54.70;;;;;;5108825;28;20472;-77
2022/05/14 12:39:19;;;;;;;3.47;1.17;;;26.40;55.00;;;;;;5113436;28;20030;-80
2022/05/14 12:41:50;;;;;;;5.88;1.60;;;26.40;54.00;;;;;;5105363;28;20080;-75
2022/05/14 12:44:28;;;;;;;2.55;1.30;;;26.60;53.60;;;;;;5113663;28;20034;-80
2022/05/14 12:46:57;;;;;;;4.22;1.27;;;26.70;54.60;;;;;;5109210;28;20099;-77
2022/05/14 12:49:33;;;;;;;2.33;1.33;;;26.90;53.50;;;;;;5113480;28;20027;-77
2022/05/14 12:52:15;;;;;;;5.55;1.08;;;27.00;52.20;;;;;;5112139;28;20261;-77
2022/05/14 12:54:47;;;;;;;2.55;1.10;;;27.20;53.10;;;;;;5111220;28;20062;-77
2022/05/14 12:57:13;;;;;;;2.40;1.30;;;27.40;52.20;;;;;;5112725;28;20073;-76
2022/05/14 12:59:39;;;;;;;2.83;1.10;;;27.10;51.70;;;;;;5109985;28;20032;-76
2022/05/14 13:02:36;;;;;;;6.40;1.80;;;27.00;51.60;;;;;;5090511;28;20461;-77
2022/05/14 13:05:11;;;;;;;2.58;0.88;;;26.80;51.90;;;;;;5099998;28;20035;-76
2022/05/14 13:07:48;;;;;;;4.18;1.33;;;26.70;52.80;;;;;;5113461;28;20380;-77
2022/05/14 13:10:18;;;;;;;5.07;1.20;;;26.60;51.60;;;;;;5121830;28;20015;-77
2022/05/14 13:12:51;;;;;;;4.00;1.02;;;26.70;52.90;;;;;;5124373;28;20031;-75
2022/05/14 13:15:17;;;;;;;4.88;1.40;;;26.90;52.30;;;;;;5122341;28;20060;-78
2022/05/14 13:17:43;;;;;;;2.90;1.38;;;27.10;51.80;;;;;;5094632;28;20036;-72
2022/05/14 13:20:23;;;;;;;3.63;1.20;;;27.30;52.20;;;;;;5114103;28;20088;-76
2022/05/14 13:22:49;;;;;;;;;;;27.40;51.30;;;;;;5107904;28;20036;-77
2022/05/14 13:25:31;;;;;;;6.15;1.58;;;27.60;50.40;;;;;;5112211;28;19953;-76
2022/05/14 13:28:14;;;;;;;3.47;1.00;;;27.80;50.50;;;;;;5107916;28;20032;-75
2022/05/14 13:30:39;;;;;;;4.70;1.00;;;27.50;50.00;;;;;;5101548;28;20490;-76
2022/05/14 13:33:23;;;;;;;5.93;1.60;;;27.00;50.60;;;;;;5110931;28;20094;-75
2022/05/14 13:38:40;;;;;;;3.83;1.13;;;27.00;52.70;;;;;;5112238;28;20030;-76
2022/05/14 13:41:16;;;;;;;3.00;0.98;;;27.30;51.60;;;;;;5111209;28;20108;-73